createdAt,value
2023-02-19T00:01:57.427Z,1005.1
2023-02-19T00:07:41.318Z,1005.05
2023-02-19T00:13:24.935Z,1005.07
2023-02-19T00:19:12.411Z,1005.01
2023-02-19T00:24:56.188Z,1004.98
2023-02-19T00:30:39.824Z,1004.92
2023-02-19T00:36:24.047Z,1004.92
2023-02-19T00:42:07.754Z,1004.85
2023-02-19T00:47:51.819Z,1004.84
2023-02-19T00:53:35.713Z,1004.89
2023-02-19T00:59:19.588Z,1004.95
2023-02-19T01:05:03.308Z,1005.01
2023-02-19T01:10:47.379Z,1004.9
2023-02-19T01:16:31.227Z,1004.94
2023-02-19T01:22:15.146Z,1004.95
2023-02-19T01:27:58.602Z,1005.06
2023-02-19T01:33:44.454Z,1005.15
2023-02-19T01:39:28.172Z,1005.05
2023-02-19T01:45:25.628Z,1005.14
2023-02-19T01:51:12.498Z,1005.23
2023-02-19T01:56:56.932Z,1005.34
2023-02-19T02:02:41.932Z,1005.28
2023-02-19T02:08:26.917Z,1005.26
2023-02-19T02:14:10.718Z,1005.35
2023-02-19T02:20:03.367Z,1005.38
2023-02-19T02:26:04.103Z,1005.34
2023-02-19T02:31:50.375Z,1005.32
2023-02-19T02:37:36.049Z,1005.32
2023-02-19T02:43:19.849Z,1005.3
2023-02-19T02:49:06.023Z,1005.32
2023-02-19T02:54:50.779Z,1005.35
2023-02-19T03:00:35.014Z,1005.4
2023-02-19T03:06:20.322Z,1005.33
2023-02-19T03:12:06.055Z,1005.38
2023-02-19T03:17:52.554Z,1005.36
2023-02-19T03:23:37.878Z,1005.5
2023-02-19T03:29:22.547Z,1005.49
2023-02-19T03:35:10.372Z,1005.58
2023-02-19T03:40:59.210Z,1005.58
2023-02-19T03:46:46.599Z,1005.59
2023-02-19T03:52:35.292Z,1005.72
2023-02-19T03:58:24.231Z,1005.85
2023-02-19T04:04:09.951Z,1005.98
2023-02-19T04:09:54.858Z,1006.03
2023-02-19T04:15:40.875Z,1006.05
2023-02-19T04:21:24.870Z,1006.13
2023-02-19T04:27:09.378Z,1006.18
2023-02-19T04:32:53.169Z,1006.04
2023-02-19T04:38:37.090Z,1006.21
2023-02-19T04:44:20.848Z,1006.17
2023-02-19T04:50:05.022Z,1006.27
2023-02-19T04:55:48.778Z,1006.35
2023-02-19T05:01:32.659Z,1006.38
2023-02-19T05:07:16.511Z,1006.39
2023-02-19T05:13:00.088Z,1006.44
2023-02-19T05:18:45.007Z,1006.44
2023-02-19T05:24:29.024Z,1006.48
2023-02-19T05:30:13.620Z,1006.59
2023-02-19T05:35:58.149Z,1006.72
2023-02-19T05:41:41.898Z,1006.73
2023-02-19T05:47:25.642Z,1006.81
2023-02-19T05:53:10.011Z,1006.91
2023-02-19T05:58:54.531Z,1006.91
2023-02-19T06:04:38.336Z,1006.95
2023-02-19T06:10:22.048Z,1007.03
2023-02-19T06:16:08.352Z,1007.03
2023-02-19T06:21:54.277Z,1007.13
2023-02-19T06:27:38.034Z,1007.2
2023-02-19T06:33:21.907Z,1007.21
2023-02-19T06:39:05.952Z,1007.25
2023-02-19T06:44:49.851Z,1007.35
2023-02-19T06:50:33.441Z,1007.37
2023-02-19T06:56:27.707Z,1007.4
2023-02-19T07:02:11.840Z,1007.51
2023-02-19T07:07:55.742Z,1007.47
2023-02-19T07:13:40.276Z,1007.57
2023-02-19T07:19:24.414Z,1007.48
2023-02-19T07:25:08.939Z,1007.49
2023-02-19T07:30:52.889Z,1007.59
2023-02-19T07:36:38.609Z,1007.7
2023-02-19T07:42:22.572Z,1007.72
2023-02-19T07:48:06.303Z,1007.78
2023-02-19T07:53:50.367Z,1007.87
2023-02-19T07:59:35.029Z,1007.97
2023-02-19T08:05:19.008Z,1008.07
2023-02-19T08:11:05.701Z,1008.16
2023-02-19T08:16:53.599Z,1008.23
2023-02-19T08:22:37.628Z,1008.3
2023-02-19T08:28:21.414Z,1008.49
2023-02-19T08:34:06.183Z,1008.57
2023-02-19T08:39:49.946Z,1008.66
2023-02-19T08:45:33.804Z,1008.77
2023-02-19T08:51:17.622Z,1008.85
2023-02-19T08:57:01.451Z,1008.9
2023-02-19T09:02:45.234Z,1009.06
2023-02-19T09:08:29.012Z,1009.16
2023-02-19T09:14:12.862Z,1009.19
2023-02-19T09:19:56.703Z,1009.17
2023-02-19T09:25:40.411Z,1009.17
2023-02-19T09:31:24.150Z,1009.22
2023-02-19T09:37:08.505Z,1009.22
2023-02-19T09:42:53.448Z,1009.29
2023-02-19T09:48:37.248Z,1009.28
2023-02-19T09:54:23.370Z,1009.23
2023-02-19T10:00:13.399Z,1009.18
2023-02-19T10:05:57.148Z,1009.18
2023-02-19T10:11:42.420Z,1009.26
2023-02-19T10:17:29.449Z,1009.38
2023-02-19T10:23:15.798Z,1009.42
2023-02-19T10:28:59.701Z,1009.36
2023-02-19T10:34:43.563Z,1009.48
2023-02-19T10:40:29.539Z,1009.62
2023-02-19T10:46:21.449Z,1009.7
2023-02-19T10:52:10.327Z,1009.77
2023-02-19T10:57:54.936Z,1009.76
2023-02-19T11:03:38.871Z,1009.78
2023-02-19T11:09:28.900Z,1009.88
2023-02-19T11:15:20.955Z,1010.05
2023-02-19T11:21:08.503Z,1010
2023-02-19T11:26:53.559Z,1010.12
2023-02-19T11:32:37.447Z,1010.1
2023-02-19T11:38:22.216Z,1010.24
2023-02-19T11:44:12.685Z,1010.21
2023-02-19T11:50:01.564Z,1010.26
2023-02-19T11:55:52.033Z,1010.26
2023-02-19T12:01:45.710Z,1010.23
2023-02-19T12:07:37.634Z,1010.21
2023-02-19T12:13:27.343Z,1009.99
2023-02-19T12:19:37.341Z,1009.68
2023-02-19T12:25:26.324Z,1009.56
2023-02-19T12:31:21.534Z,1009.61
2023-02-19T12:37:13.206Z,1009.55
2023-02-19T12:43:02.600Z,1009.63
2023-02-19T12:48:47.770Z,1009.65
2023-02-19T12:54:35.343Z,1009.82
2023-02-19T13:00:27.175Z,1009.89
2023-02-19T13:06:16.670Z,1010
2023-02-19T13:12:06.359Z,1009.95
2023-02-19T13:17:51.791Z,1010.01
2023-02-19T13:23:36.910Z,1010.1
2023-02-19T13:29:35.552Z,1010.37
2023-02-19T13:35:29.072Z,1010.22
2023-02-19T13:41:22.522Z,1010.06
2023-02-19T13:47:06.202Z,1010.32
2023-02-19T13:52:49.917Z,1010.24
2023-02-19T13:58:45.365Z,1010.26
2023-02-19T14:04:35.063Z,1010.28
2023-02-19T14:10:24.820Z,1010.3
2023-02-19T14:16:13.644Z,1010.32
2023-02-19T14:21:57.389Z,1010.29
2023-02-19T14:27:43.324Z,1010.31
2023-02-19T14:33:28.079Z,1010.47
2023-02-19T14:39:13.581Z,1010.57
2023-02-19T14:44:59.318Z,1010.55
2023-02-19T14:50:47.095Z,1010.63
2023-02-19T14:56:33.719Z,1010.65
2023-02-19T15:02:18.435Z,1010.82
2023-02-19T15:08:04.035Z,1010.82
2023-02-19T15:13:49.912Z,1010.83
2023-02-19T15:19:34.691Z,1010.74
2023-02-19T15:25:21.001Z,1010.68
2023-02-19T15:31:21.683Z,1010.74
2023-02-19T15:37:08.742Z,1010.72
2023-02-19T15:42:52.811Z,1010.65
2023-02-19T15:48:41.272Z,1010.6
2023-02-19T15:54:28.406Z,1010.48
2023-02-19T16:00:18.332Z,1010.46
2023-02-19T16:06:06.270Z,1010.37
2023-02-19T16:11:52.735Z,1010.48
2023-02-19T16:17:36.748Z,1010.65
2023-02-19T16:23:21.006Z,1010.58
2023-02-19T16:29:04.667Z,1010.74
2023-02-19T16:34:49.099Z,1010.73
2023-02-19T16:40:50.154Z,1010.71
2023-02-19T16:46:33.939Z,1010.87
2023-02-19T16:52:18.143Z,1010.84
2023-02-19T16:58:01.863Z,1010.83
2023-02-19T17:03:46.820Z,1010.96
2023-02-19T17:09:33.054Z,1011.02
2023-02-19T17:15:17.155Z,1011.09
2023-02-19T17:21:02.792Z,1011.18
2023-02-19T17:26:46.619Z,1011.22
2023-02-19T17:32:30.576Z,1011.31
2023-02-19T17:38:15.212Z,1011.37
2023-02-19T17:43:58.978Z,1011.26
2023-02-19T17:49:43.553Z,1011.27
2023-02-19T17:55:26.236Z,1011.53
2023-02-19T18:01:09.651Z,1011.51
2023-02-19T18:06:54.426Z,1011.48
2023-02-19T18:12:38.126Z,1011.47
2023-02-19T18:18:21.943Z,1011.59
2023-02-19T18:24:06.211Z,1011.67
2023-02-19T18:29:50.182Z,1011.63
2023-02-19T18:35:35.833Z,1011.67
2023-02-19T18:41:21.474Z,1011.62
2023-02-19T18:47:05.993Z,1011.53
2023-02-19T18:52:48.763Z,1011.62
2023-02-19T18:58:32.654Z,1011.62
2023-02-19T19:04:16.490Z,1011.61
2023-02-19T19:10:00.191Z,1011.65
2023-02-19T19:15:43.801Z,1011.84
2023-02-19T19:21:28.710Z,1011.85
2023-02-19T19:27:13.553Z,1011.8
2023-02-19T19:32:58.790Z,1011.73
2023-02-19T19:38:46.848Z,1011.75
2023-02-19T19:44:30.627Z,1011.82
2023-02-19T19:50:16.276Z,1011.89
2023-02-19T19:56:00.636Z,1011.79
2023-02-19T20:01:47.840Z,1011.82
2023-02-19T20:07:31.555Z,1011.72
2023-02-19T20:13:15.870Z,1011.71
2023-02-19T20:18:59.617Z,1011.84
2023-02-19T20:24:43.314Z,1011.78
2023-02-19T20:30:27.122Z,1011.66
2023-02-19T20:36:11.308Z,1011.61
2023-02-19T20:41:55.299Z,1011.53
2023-02-19T20:47:39.585Z,1011.55
2023-02-19T20:53:23.475Z,1011.61
2023-02-19T20:59:07.242Z,1011.63
2023-02-19T21:04:50.921Z,1011.59
2023-02-19T21:10:34.743Z,1011.7
2023-02-19T21:16:21.426Z,1011.63
2023-02-19T21:22:05.642Z,1011.63
2023-02-19T21:27:49.394Z,1011.68
2023-02-19T21:33:33.316Z,1011.71
2023-02-19T21:39:18.560Z,1011.78
2023-02-19T21:45:02.344Z,1011.79
2023-02-19T21:50:46.082Z,1011.74
2023-02-19T21:56:31.769Z,1011.82
2023-02-19T22:02:18.653Z,1011.77
2023-02-19T22:08:02.412Z,1011.74
2023-02-19T22:13:46.318Z,1011.8
2023-02-19T22:19:29.963Z,1011.85
2023-02-19T22:25:13.934Z,1011.85
2023-02-19T22:30:57.684Z,1011.74
2023-02-19T22:36:42.630Z,1011.75
2023-02-19T22:42:26.783Z,1011.88
2023-02-19T22:48:14.902Z,1011.91
2023-02-19T22:54:10.830Z,1011.86
2023-02-19T22:59:55.555Z,1011.67
2023-02-19T23:05:39.272Z,1011.6
2023-02-19T23:11:26.069Z,1011.62
2023-02-19T23:17:09.752Z,1011.66
2023-02-19T23:22:53.517Z,1011.74
2023-02-19T23:28:37.326Z,1011.66
2023-02-19T23:34:21.135Z,1011.66
2023-02-19T23:40:05.007Z,1011.65
2023-02-19T23:45:48.833Z,1011.5
2023-02-19T23:51:32.561Z,1011.45
2023-02-19T23:57:17.355Z,1011.37
